Terminal Aerodrome Forecast
Issued by NWS

Home | Current Version | Previous Version | Text Only | Print | Product List | Glossary On
Versions: 1 2 3 4 5 6 7 8 9 10 11 12 13
000
FTUS43 KGLD 191121
TAFMCK
TAF
KMCK 191121Z 1912/2012 VRB03KT P6SM SKC
     FM191700 18012KT P6SM FEW080 FEW200
     FM192300 17010KT P6SM VCTS SCT050CB BKN200
     FM200200 14008KT P6SM FEW200=

USA.gov is the U.S. government's official web portal to all federal, state and local government web resources and services.